Time;durP1;ratioP1;P1;durP2;ratioP2;P2;SDS_P1;SDS_P2;PMS_P1;PMS_P2;Temp;Humidity;BMP_temperature;BMP_pressure;BME280_temperature;BME280_humidity;BME280_pressure;Samples;Min_cycle;Max_cycle;Signal;HPM_P1;HPM_P2
2022/03/10 00:01:13;;;;;;;14.60;11.40;;;;;;;;;;4977671;28;20194;-55
2022/03/10 00:03:39;;;;;;;16.17;12.43;;;;;;;;;;4981670;28;20196;-54
2022/03/10 00:06:05;;;;;;;15.33;11.73;;;;;;;;;;4975685;28;20212;-54
2022/03/10 00:08:31;;;;;;;17.43;12.47;;;;;;;;;;4982570;28;20364;-54
2022/03/10 00:10:56;;;;;;;17.03;11.93;;;;;;;;;;4981270;28;20544;-54
2022/03/10 00:13:26;;;;;;;15.77;11.50;;;;;;;;;;4996242;28;20196;-54
2022/03/10 00:15:52;;;;;;;15.40;11.53;;;;;;;;;;4992500;28;20471;-54
2022/03/10 00:18:18;;;;;;;14.73;11.57;;;;;;;;;;4985832;28;20662;-54
2022/03/10 00:20:44;;;;;;;18.57;12.53;;;;;;;;;;4983794;28;21155;-54
2022/03/10 00:23:10;;;;;;;16.13;12.13;;;;;;;;;;4990306;28;20200;-54
2022/03/10 00:25:37;;;;;;;17.53;11.83;;;;;;;;;;4990925;28;20668;-54
2022/03/10 00:28:03;;;;;;;16.67;11.40;;;;;;;;;;4990730;28;20292;-54
2022/03/10 00:30:29;;;;;;;14.60;11.97;;;;;;;;;;4983579;28;21165;-54
2022/03/10 00:32:55;;;;;;;15.57;11.67;;;;;;;;;;4968117;28;20200;-54
2022/03/10 00:35:22;;;;;;;14.93;11.60;;;;;;;;;;4970223;28;20197;-54
2022/03/10 00:37:48;;;;;;;19.53;12.20;;;;;;;;;;4977342;28;20193;-54
2022/03/10 00:40:14;;;;;;;16.07;11.87;;;;;;;;;;4975379;28;20665;-54
2022/03/10 00:42:40;;;;;;;15.57;12.13;;;;;;;;;;4981887;28;20193;-54
2022/03/10 00:45:07;;;;;;;14.47;11.83;;;;;;;;;;4977669;28;20197;-54
2022/03/10 00:47:33;;;;;;;14.50;11.93;;;;;;;;;;4980939;28;20197;-54
2022/03/10 00:49:59;;;;;;;16.40;12.13;;;;;;;;;;4976978;28;20824;-54
2022/03/10 00:52:25;;;;;;;17.93;11.97;;;;;;;;;;4978472;28;20196;-54
2022/03/10 00:54:51;;;;;;;15.73;11.77;;;;;;;;;;4969753;28;20255;-54
2022/03/10 00:57:17;;;;;;;16.60;11.97;;;;;;;;;;4974812;28;20229;-54
2022/03/10 00:59:43;;;;;;;14.77;12.13;;;;;;;;;;4974549;28;20201;-55
2022/03/10 01:02:09;;;;;;;16.57;11.30;;;;;;;;;;4978770;28;20196;-54
2022/03/10 01:04:35;;;;;;;15.13;11.80;;;;;;;;;;4985898;28;20225;-54
2022/03/10 01:07:01;;;;;;;15.70;12.37;;;;;;;;;;4981389;28;20284;-54
2022/03/10 01:09:27;;;;;;;15.93;12.10;;;;;;;;;;4980028;28;20239;-54
2022/03/10 01:11:53;;;;;;;14.93;11.60;;;;;;;;;;4976076;28;20219;-54
2022/03/10 01:14:19;;;;;;;14.90;11.97;;;;;;;;;;4985559;28;21097;-54
2022/03/10 01:16:45;;;;;;;17.47;12.20;;;;;;;;;;4974310;28;20725;-54
2022/03/10 01:19:11;;;;;;;16.93;11.90;;;;;;;;;;4975817;28;20220;-54
2022/03/10 01:21:36;;;;;;;15.73;11.50;;;;;;;;;;4981151;28;20200;-54
2022/03/10 01:24:02;;;;;;;16.83;12.30;;;;;;;;;;4977520;28;20219;-54
2022/03/10 01:26:28;;;;;;;16.57;11.83;;;;;;;;;;4980058;28;22182;-54
2022/03/10 01:28:54;;;;;;;15.90;11.83;;;;;;;;;;4978171;28;20223;-55
2022/03/10 01:31:20;;;;;;;16.07;11.83;;;;;;;;;;4982146;28;20205;-54
2022/03/10 01:33:46;;;;;;;15.43;11.47;;;;;;;;;;4982233;28;20301;-54
2022/03/10 01:36:13;;;;;;;15.67;11.73;;;;;;;;;;4986382;28;20204;-54
2022/03/10 01:38:39;;;;;;;15.57;11.53;;;;;;;;;;4974857;28;20293;-54
2022/03/10 01:41:08;;;;;;;14.77;11.57;;;;;;;;;;4985399;28;20219;-54
2022/03/10 01:43:34;;;;;;;14.43;10.73;;;;;;;;;;4982256;28;20199;-54
2022/03/10 01:46:02;;;;;;;16.10;11.37;;;;;;;;;;4986815;28;20200;-54
2022/03/10 01:48:28;;;;;;;15.17;11.27;;;;;;;;;;4980649;28;20267;-55
2022/03/10 01:50:54;;;;;;;15.17;11.33;;;;;;;;;;4981886;28;20433;-54
2022/03/10 01:53:20;;;;;;;13.97;11.33;;;;;;;;;;4981596;28;20197;-54
2022/03/10 01:55:46;;;;;;;15.20;11.53;;;;;;;;;;4987433;28;20271;-54
2022/03/10 01:58:12;;;;;;;13.33;10.57;;;;;;;;;;4986858;28;20193;-54
2022/03/10 02:00:38;;;;;;;15.43;11.60;;;;;;;;;;4975573;28;20869;-54
2022/03/10 02:03:04;;;;;;;15.33;11.63;;;;;;;;;;4967479;28;20569;-54
2022/03/10 02:05:31;;;;;;;15.10;11.67;;;;;;;;;;4983703;28;20213;-54
2022/03/10 02:10:42;;;;;;;15.23;11.40;;;;;;;;;;4982045;28;20275;-54
2022/03/10 02:13:08;;;;;;;17.40;11.80;;;;;;;;;;4981640;28;20200;-54
2022/03/10 02:18:21;;;;;;;16.47;12.00;;;;;;;;;;4983696;28;20215;-54
2022/03/10 02:20:47;;;;;;;17.87;11.73;;;;;;;;;;4979599;28;22320;-54
2022/03/10 02:23:13;;;;;;;16.43;11.67;;;;;;;;;;4982457;28;20193;-54
2022/03/10 02:25:40;;;;;;;16.00;11.67;;;;;;;;;;4979467;28;20275;-54
2022/03/10 02:28:06;;;;;;;15.07;11.93;;;;;;;;;;4976529;28;20193;-54
2022/03/10 02:30:32;;;;;;;15.97;11.73;;;;;;;;;;4979498;28;20684;-54
2022/03/10 02:32:58;;;;;;;14.90;10.93;;;;;;;;;;4982338;28;20271;-54
2022/03/10 02:35:24;;;;;;;17.87;11.43;;;;;;;;;;4988383;28;20515;-54
2022/03/10 02:37:50;;;;;;;16.77;12.10;;;;;;;;;;4984491;28;20203;-54
2022/03/10 02:40:16;;;;;;;15.50;11.80;;;;;;;;;;4977569;28;20193;-54
2022/03/10 02:42:42;;;;;;;16.83;12.33;;;;;;;;;;4977714;28;20693;-54
2022/03/10 02:45:08;;;;;;;15.73;11.90;;;;;;;;;;4974527;28;20535;-54
2022/03/10 02:47:34;;;;;;;16.40;12.47;;;;;;;;;;4976057;28;20193;-54
2022/03/10 02:50:03;;;;;;;17.60;12.00;;;;;;;;;;4980516;28;20219;-54
2022/03/10 02:52:29;;;;;;;17.67;11.80;;;;;;;;;;4979878;28;20201;-54
2022/03/10 02:54:55;;;;;;;16.00;11.63;;;;;;;;;;4987321;28;20552;-54
2022/03/10 02:57:21;;;;;;;16.57;12.33;;;;;;;;;;4985549;28;20192;-54
2022/03/10 02:59:47;;;;;;;19.67;12.80;;;;;;;;;;4974660;28;20184;-54
2022/03/10 03:02:13;;;;;;;17.00;12.37;;;;;;;;;;4979558;28;20193;-54
2022/03/10 03:04:39;;;;;;;14.77;11.83;;;;;;;;;;4979527;28;20667;-54
2022/03/10 03:07:05;;;;;;;17.57;11.43;;;;;;;;;;4980318;28;20275;-54
2022/03/10 03:09:31;;;;;;;18.37;12.27;;;;;;;;;;4967337;28;20197;-54
2022/03/10 03:11:57;;;;;;;14.80;11.73;;;;;;;;;;4974877;28;20797;-54
2022/03/10 03:14:23;;;;;;;18.47;12.00;;;;;;;;;;4986994;28;20194;-54
2022/03/10 03:16:50;;;;;;;15.23;11.80;;;;;;;;;;4983246;28;20576;-53
2022/03/10 03:19:16;;;;;;;15.53;11.93;;;;;;;;;;4977384;28;20224;-54
2022/03/10 03:21:41;;;;;;;18.07;12.37;;;;;;;;;;4978246;28;20826;-54
2022/03/10 03:24:07;;;;;;;17.37;12.30;;;;;;;;;;4980975;28;20296;-53
2022/03/10 03:26:33;;;;;;;15.57;11.70;;;;;;;;;;4978458;28;20262;-54
2022/03/10 03:28:59;;;;;;;16.07;12.33;;;;;;;;;;4974193;28;20397;-54
2022/03/10 03:31:25;;;;;;;18.30;12.17;;;;;;;;;;4979926;28;20233;-54
2022/03/10 03:33:51;;;;;;;17.13;12.10;;;;;;;;;;4982770;28;20938;-54
2022/03/10 03:36:17;;;;;;;16.97;12.77;;;;;;;;;;4972657;28;20193;-54
2022/03/10 03:38:43;;;;;;;15.97;11.73;;;;;;;;;;4982123;28;20181;-54
2022/03/10 03:41:09;;;;;;;17.10;12.77;;;;;;;;;;4984881;28;20196;-54
2022/03/10 03:43:35;;;;;;;17.53;12.40;;;;;;;;;;4987011;28;20546;-54
2022/03/10 03:46:01;;;;;;;20.47;12.93;;;;;;;;;;4977118;28;20696;-54
2022/03/10 03:48:27;;;;;;;15.90;12.17;;;;;;;;;;4980073;28;20201;-54
2022/03/10 03:50:53;;;;;;;17.80;13.00;;;;;;;;;;4972875;28;20221;-54
2022/03/10 03:53:19;;;;;;;15.57;12.30;;;;;;;;;;4967900;28;20194;-54
2022/03/10 03:55:45;;;;;;;19.70;12.33;;;;;;;;;;4967083;28;20202;-54
2022/03/10 03:58:11;;;;;;;16.00;12.20;;;;;;;;;;4964039;28;20197;-54
2022/03/10 04:00:37;;;;;;;16.43;12.20;;;;;;;;;;4975290;28;21180;-54
2022/03/10 04:03:09;;;;;;;15.87;12.03;;;;;;;;;;4985671;28;20217;-54
2022/03/10 04:05:36;;;;;;;16.90;12.80;;;;;;;;;;4981910;28;20219;-54
2022/03/10 04:08:02;;;;;;;17.33;11.90;;;;;;;;;;4972901;28;20205;-54
2022/03/10 04:10:28;;;;;;;17.77;12.87;;;;;;;;;;4979055;28;20220;-54
2022/03/10 04:12:54;;;;;;;19.90;12.93;;;;;;;;;;4983839;28;20243;-54
2022/03/10 04:15:20;;;;;;;18.00;13.23;;;;;;;;;;4986748;28;20193;-54
2022/03/10 04:17:46;;;;;;;17.37;12.93;;;;;;;;;;4980403;28;20281;-54
2022/03/10 04:20:13;;;;;;;19.47;12.57;;;;;;;;;;4980168;28;20335;-54
2022/03/10 04:22:39;;;;;;;17.77;13.03;;;;;;;;;;4986824;28;20208;-54
2022/03/10 04:25:06;;;;;;;17.80;12.03;;;;;;;;;;4985876;28;20241;-54
2022/03/10 04:27:32;;;;;;;16.43;12.53;;;;;;;;;;4984998;28;20609;-54
2022/03/10 04:29:58;;;;;;;19.33;12.97;;;;;;;;;;4993070;28;20229;-54
2022/03/10 04:32:24;;;;;;;17.70;13.30;;;;;;;;;;4986140;28;20197;-54
2022/03/10 04:34:49;;;;;;;17.43;13.20;;;;;;;;;;4983825;28;20684;-54
2022/03/10 04:37:15;;;;;;;19.23;13.33;;;;;;;;;;4987835;28;20277;-54
2022/03/10 04:39:41;;;;;;;16.30;12.53;;;;;;;;;;4991870;28;24261;-54
2022/03/10 04:42:07;;;;;;;16.23;12.50;;;;;;;;;;4997709;28;20803;-54
2022/03/10 04:44:33;;;;;;;18.33;13.27;;;;;;;;;;4979488;28;20189;-54
2022/03/10 04:46:59;;;;;;;19.43;12.90;;;;;;;;;;4988741;28;20201;-54
2022/03/10 04:49:25;;;;;;;19.07;13.73;;;;;;;;;;4982192;28;20234;-54
2022/03/10 04:51:51;;;;;;;17.50;12.97;;;;;;;;;;4987279;28;20555;-54
2022/03/10 04:54:17;;;;;;;18.00;13.50;;;;;;;;;;4990275;28;20201;-54
2022/03/10 04:56:43;;;;;;;18.63;12.63;;;;;;;;;;4985966;28;20189;-54
2022/03/10 04:59:09;;;;;;;18.23;13.10;;;;;;;;;;4985149;28;20192;-54
2022/03/10 05:01:35;;;;;;;16.23;12.50;;;;;;;;;;4985801;28;20255;-54
2022/03/10 05:04:01;;;;;;;18.43;13.10;;;;;;;;;;4988975;28;20670;-54
2022/03/10 05:06:27;;;;;;;17.77;13.07;;;;;;;;;;4984160;28;20198;-54
2022/03/10 05:08:53;;;;;;;19.67;12.90;;;;;;;;;;4984957;28;20204;-54
2022/03/10 05:11:19;;;;;;;16.07;12.27;;;;;;;;;;4986504;28;20216;-54
2022/03/10 05:13:45;;;;;;;17.83;13.47;;;;;;;;;;4985678;28;20683;-54
2022/03/10 05:16:11;;;;;;;20.80;12.83;;;;;;;;;;4980247;28;20185;-54
2022/03/10 05:18:37;;;;;;;16.67;13.47;;;;;;;;;;4986353;28;20221;-54
2022/03/10 05:21:03;;;;;;;17.47;12.77;;;;;;;;;;4986490;28;20235;-54
2022/03/10 05:23:29;;;;;;;17.67;13.53;;;;;;;;;;4984926;28;20200;-53
2022/03/10 05:25:55;;;;;;;19.93;13.40;;;;;;;;;;4977500;28;20237;-54
2022/03/10 05:28:21;;;;;;;20.40;13.70;;;;;;;;;;4977854;28;20606;-54
2022/03/10 05:30:48;;;;;;;18.40;13.50;;;;;;;;;;4982393;28;20768;-54
2022/03/10 05:33:14;;;;;;;19.53;13.13;;;;;;;;;;4992084;28;20220;-54
2022/03/10 05:35:40;;;;;;;16.73;12.87;;;;;;;;;;4989737;28;20196;-54
2022/03/10 05:38:06;;;;;;;17.63;12.37;;;;;;;;;;4967591;28;20259;-54
2022/03/10 05:40:32;;;;;;;18.87;13.17;;;;;;;;;;4978320;28;24668;-54
2022/03/10 05:42:58;;;;;;;19.90;14.63;;;;;;;;;;4973902;28;20193;-54
2022/03/10 05:45:24;;;;;;;18.00;13.20;;;;;;;;;;4982449;28;20217;-54
2022/03/10 05:47:50;;;;;;;18.00;12.60;;;;;;;;;;4982871;28;20259;-54
2022/03/10 05:50:16;;;;;;;17.80;13.90;;;;;;;;;;4973733;28;20263;-54
2022/03/10 05:52:42;;;;;;;18.07;13.37;;;;;;;;;;4984190;28;20181;-54
2022/03/10 05:55:09;;;;;;;21.13;14.20;;;;;;;;;;4978375;28;20200;-54
2022/03/10 05:57:35;;;;;;;19.87;14.43;;;;;;;;;;4967785;28;20200;-54
2022/03/10 06:00:01;;;;;;;17.03;13.30;;;;;;;;;;4978900;28;20987;-54
2022/03/10 06:02:26;;;;;;;17.03;13.87;;;;;;;;;;4984837;28;20207;-54
2022/03/10 06:04:52;;;;;;;19.53;14.13;;;;;;;;;;4981958;28;20229;-54
2022/03/10 06:07:18;;;;;;;19.43;14.27;;;;;;;;;;4983900;28;20231;-54
2022/03/10 06:09:44;;;;;;;17.77;13.70;;;;;;;;;;4989293;28;20239;-54
2022/03/10 06:12:10;;;;;;;17.17;13.00;;;;;;;;;;4988444;28;20216;-54
2022/03/10 06:14:37;;;;;;;17.10;13.17;;;;;;;;;;4986189;28;20200;-54
2022/03/10 06:17:03;;;;;;;21.17;14.67;;;;;;;;;;4988086;28;20204;-57
2022/03/10 06:19:29;;;;;;;22.60;15.17;;;;;;;;;;4984965;28;20283;-56
2022/03/10 06:21:55;;;;;;;22.73;14.10;;;;;;;;;;4988981;28;20203;-54
2022/03/10 06:24:21;;;;;;;22.20;14.33;;;;;;;;;;4984342;28;20197;-54
2022/03/10 06:26:47;;;;;;;23.97;15.17;;;;;;;;;;4983210;28;20196;-54
2022/03/10 06:29:16;;;;;;;19.10;15.07;;;;;;;;;;4989631;28;20196;-54
2022/03/10 06:31:42;;;;;;;20.27;14.77;;;;;;;;;;4980641;28;21302;-54
2022/03/10 06:34:08;;;;;;;19.93;15.03;;;;;;;;;;4983989;28;20430;-55
2022/03/10 06:36:34;;;;;;;19.40;13.90;;;;;;;;;;4989450;28;20288;-52
2022/03/10 06:39:00;;;;;;;18.30;14.10;;;;;;;;;;4987930;28;20556;-53
2022/03/10 06:41:26;;;;;;;20.33;14.53;;;;;;;;;;4986761;28;20217;-53
2022/03/10 06:43:52;;;;;;;23.63;14.53;;;;;;;;;;4998474;28;20728;-53
2022/03/10 06:46:18;;;;;;;19.63;13.90;;;;;;;;;;4991648;28;20203;-53
2022/03/10 06:48:44;;;;;;;18.07;13.57;;;;;;;;;;4996524;28;20741;-54
2022/03/10 06:51:10;;;;;;;19.67;14.23;;;;;;;;;;4992946;28;20251;-53
2022/03/10 06:53:36;;;;;;;19.77;13.93;;;;;;;;;;4983378;28;21669;-53
2022/03/10 06:56:02;;;;;;;19.20;14.20;;;;;;;;;;4994400;28;20654;-53
2022/03/10 06:58:28;;;;;;;19.33;14.40;;;;;;;;;;4989397;28;20659;-53
2022/03/10 07:00:54;;;;;;;20.13;14.10;;;;;;;;;;4993148;28;20199;-53
2022/03/10 07:03:21;;;;;;;19.03;13.47;;;;;;;;;;4997236;28;20197;-53
2022/03/10 07:05:47;;;;;;;18.20;14.10;;;;;;;;;;4994921;28;20631;-53
2022/03/10 07:08:13;;;;;;;17.67;13.90;;;;;;;;;;5000910;28;20200;-53
2022/03/10 07:10:39;;;;;;;18.77;14.17;;;;;;;;;;5003259;28;20405;-53
2022/03/10 07:13:05;;;;;;;19.70;14.37;;;;;;;;;;4997304;28;20274;-53
2022/03/10 07:15:31;;;;;;;18.53;13.70;;;;;;;;;;5004109;28;20662;-53
2022/03/10 07:17:57;;;;;;;18.47;13.30;;;;;;;;;;5002520;28;20845;-53
2022/03/10 07:20:23;;;;;;;19.63;13.67;;;;;;;;;;4998289;28;20224;-53
2022/03/10 07:22:49;;;;;;;20.13;14.37;;;;;;;;;;4997765;28;20206;-53
2022/03/10 07:25:15;;;;;;;19.43;13.93;;;;;;;;;;4996501;28;20695;-53
2022/03/10 07:27:41;;;;;;;22.97;14.13;;;;;;;;;;4995023;28;20193;-53
2022/03/10 07:30:07;;;;;;;19.30;13.47;;;;;;;;;;4995748;28;20676;-53
2022/03/10 07:32:33;;;;;;;20.70;13.53;;;;;;;;;;4995107;28;20260;-53
2022/03/10 07:35:00;;;;;;;21.63;14.53;;;;;;;;;;4991455;28;22342;-53
2022/03/10 07:37:26;;;;;;;20.20;13.27;;;;;;;;;;4976797;28;25209;-54
2022/03/10 07:39:52;;;;;;;17.00;13.80;;;;;;;;;;4992403;28;20247;-53
2022/03/10 07:42:18;;;;;;;16.40;13.63;;;;;;;;;;4991054;28;20292;-53
2022/03/10 07:44:44;;;;;;;19.50;13.67;;;;;;;;;;4991124;28;20220;-53
2022/03/10 07:47:10;;;;;;;23.33;13.93;;;;;;;;;;4994991;28;20193;-54
2022/03/10 07:49:36;;;;;;;18.97;13.83;;;;;;;;;;4997214;28;20213;-54
2022/03/10 07:52:02;;;;;;;22.17;13.70;;;;;;;;;;5000589;28;20209;-53
2022/03/10 07:54:28;;;;;;;20.73;13.43;;;;;;;;;;4999541;28;23922;-53
2022/03/10 07:56:54;;;;;;;19.33;13.60;;;;;;;;;;4997350;28;20193;-54
2022/03/10 07:59:20;;;;;;;19.73;12.83;;;;;;;;;;4997661;28;20674;-54
2022/03/10 08:01:46;;;;;;;20.10;13.17;;;;;;;;;;5002651;28;20225;-53
2022/03/10 08:04:12;;;;;;;22.63;13.97;;;;;;;;;;5004235;28;20651;-53
2022/03/10 08:06:38;;;;;;;16.23;12.20;;;;;;;;;;5015762;28;20189;-53
2022/03/10 08:09:06;;;;;;;20.03;13.80;;;;;;;;;;5005521;28;20205;-53
2022/03/10 08:11:32;;;;;;;20.47;13.43;;;;;;;;;;5011687;28;20201;-53
2022/03/10 08:13:58;;;;;;;19.67;14.30;;;;;;;;;;5009977;28;20196;-53
2022/03/10 08:16:23;;;;;;;19.57;13.50;;;;;;;;;;5010068;28;21103;-53
2022/03/10 08:18:50;;;;;;;26.00;13.83;;;;;;;;;;5010462;28;20226;-53
2022/03/10 08:21:16;;;;;;;21.63;14.13;;;;;;;;;;5009263;28;20486;-53
2022/03/10 08:23:42;;;;;;;22.87;13.53;;;;;;;;;;5006706;28;20214;-54
2022/03/10 08:26:08;;;;;;;21.20;13.83;;;;;;;;;;5008542;28;20252;-54
2022/03/10 08:28:34;;;;;;;18.67;12.90;;;;;;;;;;5007772;28;20339;-54
2022/03/10 08:31:02;;;;;;;21.43;14.07;;;;;;;;;;5006504;28;20223;-54
2022/03/10 08:33:28;;;;;;;22.57;13.43;;;;;;;;;;4998723;28;20223;-53
2022/03/10 08:35:54;;;;;;;16.33;13.17;;;;;;;;;;5009092;28;20712;-53
2022/03/10 08:38:20;;;;;;;19.60;12.50;;;;;;;;;;5006120;28;20668;-54
2022/03/10 08:40:46;;;;;;;16.87;12.40;;;;;;;;;;5006802;28;20197;-54
2022/03/10 08:43:12;;;;;;;16.50;11.97;;;;;;;;;;5004703;28;20235;-53
2022/03/10 08:45:39;;;;;;;15.87;12.47;;;;;;;;;;5003852;28;20284;-54
2022/03/10 08:48:05;;;;;;;21.00;12.10;;;;;;;;;;4992799;28;20208;-54
2022/03/10 08:50:31;;;;;;;16.17;12.33;;;;;;;;;;4991871;28;20282;-54
2022/03/10 08:52:57;;;;;;;21.47;13.80;;;;;;;;;;5000598;28;20276;-54
2022/03/10 08:55:23;;;;;;;16.30;12.80;;;;;;;;;;5006366;28;20200;-54
2022/03/10 08:57:49;;;;;;;20.67;12.17;;;;;;;;;;5010017;28;20685;-54
2022/03/10 09:00:15;;;;;;;17.87;12.07;;;;;;;;;;5004869;28;20204;-54
2022/03/10 09:02:41;;;;;;;17.10;12.90;;;;;;;;;;5007107;28;20285;-54
2022/03/10 09:05:08;;;;;;;17.00;11.80;;;;;;;;;;5000058;28;20389;-54
2022/03/10 09:07:34;;;;;;;15.60;12.47;;;;;;;;;;5012673;28;20292;-54
2022/03/10 09:10:00;;;;;;;16.10;12.43;;;;;;;;;;5008853;28;20196;-54
2022/03/10 09:12:27;;;;;;;16.37;12.80;;;;;;;;;;5001046;28;20624;-54
2022/03/10 09:14:53;;;;;;;14.60;12.57;;;;;;;;;;5009945;28;20193;-54
2022/03/10 09:17:19;;;;;;;17.10;12.57;;;;;;;;;;4999426;28;20200;-54
2022/03/10 09:19:45;;;;;;;14.83;12.53;;;;;;;;;;5007605;28;20182;-54
2022/03/10 09:22:12;;;;;;;15.17;12.07;;;;;;;;;;5006908;28;20285;-54
2022/03/10 09:24:38;;;;;;;14.33;12.50;;;;;;;;;;5009856;28;20821;-54
2022/03/10 09:27:06;;;;;;;16.23;12.80;;;;;;;;;;4999105;28;20193;-54
2022/03/10 09:29:32;;;;;;;14.90;12.00;;;;;;;;;;5008603;28;20211;-54
2022/03/10 09:31:58;;;;;;;16.60;12.67;;;;;;;;;;5004998;28;20217;-54
2022/03/10 09:34:24;;;;;;;17.13;11.80;;;;;;;;;;4999163;28;20189;-53
2022/03/10 09:36:50;;;;;;;17.97;12.97;;;;;;;;;;4999823;28;20838;-54
2022/03/10 09:39:18;;;;;;;17.57;12.50;;;;;;;;;;5004180;28;20193;-54
2022/03/10 09:41:44;;;;;;;14.93;12.97;;;;;;;;;;5002047;28;20189;-54
2022/03/10 09:44:14;;;;;;;16.60;13.37;;;;;;;;;;4997464;28;20844;-54
2022/03/10 09:46:41;;;;;;;16.47;13.50;;;;;;;;;;5003312;28;20201;-54
2022/03/10 09:49:07;;;;;;;17.63;14.57;;;;;;;;;;5002496;28;20224;-55
2022/03/10 09:51:33;;;;;;;17.17;13.23;;;;;;;;;;4997400;28;20320;-54
2022/03/10 09:53:59;;;;;;;18.10;13.53;;;;;;;;;;4997774;28;20640;-55
2022/03/10 09:56:24;;;;;;;17.70;13.47;;;;;;;;;;4986785;28;20205;-54
2022/03/10 09:58:50;;;;;;;16.33;13.43;;;;;;;;;;4999395;28;20594;-54
2022/03/10 10:01:16;;;;;;;15.87;13.57;;;;;;;;;;4996283;28;20672;-54
2022/03/10 10:03:42;;;;;;;16.57;13.90;;;;;;;;;;4996939;28;20722;-55
2022/03/10 10:06:08;;;;;;;15.50;13.70;;;;;;;;;;4999521;28;20226;-54
2022/03/10 10:08:34;;;;;;;15.87;13.67;;;;;;;;;;4992743;28;20366;-55
2022/03/10 10:11:00;;;;;;;17.33;14.17;;;;;;;;;;4995098;28;20944;-55
2022/03/10 10:13:27;;;;;;;18.17;14.03;;;;;;;;;;4993106;28;20782;-54
2022/03/10 10:16:03;;;;;;;17.13;13.57;;;;;;;;;;4997696;28;20205;-54
2022/03/10 10:18:30;;;;;;;16.63;14.40;;;;;;;;;;5002255;28;20200;-54
2022/03/10 10:20:56;;;;;;;22.77;13.85;;;;;;;;;;5006586;28;20264;-55
2022/03/10 10:23:26;;;;;;;15.63;13.93;;;;;;;;;;5007087;28;20439;-55
2022/03/10 10:25:53;;;;;;;16.73;14.13;;;;;;;;;;5004997;28;20320;-55
2022/03/10 10:28:27;;;;;;;22.70;14.77;;;;;;;;;;4996616;28;20304;-55
2022/03/10 10:31:07;;;;;;;17.75;14.10;;;;;;;;;;4994055;28;20578;-55
2022/03/10 10:33:33;;;;;;;22.85;14.65;;;;;;;;;;4988558;28;20196;-55
2022/03/10 10:36:24;;;;;;;23.60;14.25;;;;;;;;;;4991269;28;20573;-55
2022/03/10 10:38:50;;;;;;;27.98;16.38;;;;;;;;;;4985427;28;20220;-55
2022/03/10 10:41:16;;;;;;;22.13;16.10;;;;;;;;;;4981096;28;20274;-55
2022/03/10 10:43:43;;;;;;;17.20;15.27;;;;;;;;;;4988971;28;21938;-55
2022/03/10 10:46:12;;;;;;;19.92;14.93;;;;;;;;;;4989082;28;20759;-55
2022/03/10 10:48:47;;;;;;;18.52;15.70;;;;;;;;;;4994209;28;20195;-55
2022/03/10 10:51:13;;;;;;;19.27;14.85;;;;;;;;;;4988737;28;20636;-55
2022/03/10 10:53:40;;;;;;;24.08;14.27;;;;;;;;;;4994972;28;20207;-55
2022/03/10 10:56:06;;;;;;;23.77;15.13;;;;;;;;;;4999424;28;20228;-55
2022/03/10 10:58:32;;;;;;;17.65;14.10;;;;;;;;;;4991995;28;20240;-55
2022/03/10 11:00:58;;;;;;;18.50;13.02;;;;;;;;;;4989871;28;20188;-55
2022/03/10 11:03:31;;;;;;;15.15;9.63;;;;;;;;;;4998681;28;20188;-54
2022/03/10 11:05:57;;;;;;;13.38;9.88;;;;;;;;;;5007426;28;20294;-55
2022/03/10 11:08:24;;;;;;;13.70;7.38;;;;;;;;;;5006026;28;20654;-55
2022/03/10 11:10:50;;;;;;;11.13;7.72;;;;;;;;;;5005556;28;20336;-55
2022/03/10 11:13:16;;;;;;;9.40;7.10;;;;;;;;;;5001767;28;20189;-55
2022/03/10 11:15:42;;;;;;;11.32;8.38;;;;;;;;;;5001086;28;20348;-55
2022/03/10 11:18:12;;;;;;;10.32;7.82;;;;;;;;;;4992416;28;20189;-55
2022/03/10 11:20:39;;;;;;;7.55;6.40;;;;;;;;;;4988018;28;20200;-56
2022/03/10 11:23:07;;;;;;;9.65;6.25;;;;;;;;;;4996441;28;20277;-55
2022/03/10 11:25:38;;;;;;;10.85;6.97;;;;;;;;;;4997755;28;20225;-54
2022/03/10 11:28:23;;;;;;;10.05;7.63;;;;;;;;;;4992827;28;20612;-54
2022/03/10 11:30:50;;;;;;;10.02;7.05;;;;;;;;;;4995197;28;20217;-54
2022/03/10 11:33:16;;;;;;;8.82;6.43;;;;;;;;;;4998409;28;20186;-54
2022/03/10 11:35:43;;;;;;;8.63;6.28;;;;;;;;;;5004349;28;20193;-54
2022/03/10 11:38:10;;;;;;;8.10;6.35;;;;;;;;;;5000970;28;20197;-54
2022/03/10 11:40:43;;;;;;;9.02;6.15;;;;;;;;;;4996252;28;20196;-54
2022/03/10 11:43:09;;;;;;;7.30;6.40;;;;;;;;;;4998064;28;20189;-54
2022/03/10 11:45:35;;;;;;;11.63;6.57;;;;;;;;;;4999051;28;20203;-55
2022/03/10 11:48:24;;;;;;;8.27;6.18;;;;;;;;;;5002261;28;20196;-54
2022/03/10 11:50:51;;;;;;;8.00;6.93;;;;;;;;;;4982672;28;20252;-55
2022/03/10 11:53:17;;;;;;;10.57;6.75;;;;;;;;;;4996641;28;20630;-55
2022/03/10 11:55:43;;;;;;;10.93;6.60;;;;;;;;;;4997179;28;20267;-55
2022/03/10 11:58:10;;;;;;;9.68;6.72;;;;;;;;;;4999274;28;20191;-54
2022/03/10 12:00:47;;;;;;;6.90;5.80;;;;;;;;;;4992760;28;20197;-55
2022/03/10 12:03:25;;;;;;;8.45;6.47;;;;;;;;;;4995523;28;20190;-54
2022/03/10 12:05:58;;;;;;;6.82;5.97;;;;;;;;;;4999984;28;20212;-54
2022/03/10 12:08:25;;;;;;;9.43;6.60;;;;;;;;;;5003608;28;20280;-54
2022/03/10 12:10:51;;;;;;;8.43;6.65;;;;;;;;;;5006288;28;20274;-55
2022/03/10 12:13:23;;;;;;;7.60;6.80;;;;;;;;;;5008737;28;20189;-54
2022/03/10 12:15:50;;;;;;;6.50;5.55;;;;;;;;;;4999382;28;20779;-54
2022/03/10 12:18:24;;;;;;;8.05;6.45;;;;;;;;;;5004038;28;20193;-55
2022/03/10 12:20:55;;;;;;;6.43;5.82;;;;;;;;;;5008159;28;20278;-55
2022/03/10 12:23:26;;;;;;;8.48;6.25;;;;;;;;;;5006812;28;20185;-53
2022/03/10 12:25:53;;;;;;;10.15;6.15;;;;;;;;;;5007438;28;20242;-55
2022/03/10 12:28:21;;;;;;;8.07;6.25;;;;;;;;;;5006459;28;20193;-55
2022/03/10 12:30:47;;;;;;;7.28;6.10;;;;;;;;;;5002580;28;20705;-55
2022/03/10 12:33:12;;;;;;;12.68;9.93;;;;;;;;;;5002320;28;20247;-56
2022/03/10 12:35:40;;;;;;;9.98;6.95;;;;;;;;;;4999607;28;20288;-56
2022/03/10 12:38:06;;;;;;;7.10;6.13;;;;;;;;;;5008934;28;20714;-56
2022/03/10 12:40:33;;;;;;;8.27;6.88;;;;;;;;;;5002023;28;20188;-56
2022/03/10 12:43:00;;;;;;;6.88;6.18;;;;;;;;;;4993796;28;20672;-56
2022/03/10 12:45:26;;;;;;;9.63;6.75;;;;;;;;;;4999323;28;20197;-56
2022/03/10 12:47:57;;;;;;;9.20;6.47;;;;;;;;;;5005040;28;20284;-56
2022/03/10 12:50:23;;;;;;;7.88;6.55;;;;;;;;;;5006385;28;20855;-56
2022/03/10 12:52:49;;;;;;;8.60;6.63;;;;;;;;;;5017362;28;20186;-57
2022/03/10 12:55:15;;;;;;;10.07;6.68;;;;;;;;;;5010847;28;20189;-56
2022/03/10 12:57:41;;;;;;;11.73;6.72;;;;;;;;;;5021642;28;20198;-56
2022/03/10 13:00:21;;;;;;;10.52;6.32;;;;;;;;;;5020263;28;20177;-56
2022/03/10 13:02:57;;;;;;;12.13;6.28;;;;;;;;;;5017587;28;20276;-56
2022/03/10 13:05:23;;;;;;;9.30;5.75;;;;;;;;;;5005342;28;20584;-54
2022/03/10 13:07:48;;;;;;;9.48;5.88;;;;;;;;;;4998359;28;20853;-55
2022/03/10 13:10:15;;;;;;;8.60;5.68;;;;;;;;;;4991794;28;20189;-56
2022/03/10 13:12:42;;;;;;;5.88;5.28;;;;;;;;;;4990966;28;20223;-56
2022/03/10 13:15:09;;;;;;;5.78;5.07;;;;;;;;;;4993890;28;20189;-56
2022/03/10 13:17:39;;;;;;;7.28;4.78;;;;;;;;;;4998040;28;20331;-56
2022/03/10 13:20:09;;;;;;;10.75;5.72;;;;;;;;;;4989663;28;20545;-55
2022/03/10 13:22:35;;;;;;;8.05;5.38;;;;;;;;;;4999232;28;20189;-56
2022/03/10 13:25:02;;;;;;;8.80;5.03;;;;;;;;;;5005138;28;20604;-56
2022/03/10 13:27:30;;;;;;;8.43;4.80;;;;;;;;;;5007233;28;20688;-56
2022/03/10 13:29:58;;;;;;;5.85;5.25;;;;;;;;;;5001698;28;20201;-56
2022/03/10 13:32:25;;;;;;;6.93;5.35;;;;;;;;;;4990041;28;20727;-55
2022/03/10 13:34:52;;;;;;;5.47;4.78;;;;;;;;;;4983954;28;20203;-54
2022/03/10 13:37:19;;;;;;;6.30;4.68;;;;;;;;;;4984985;28;20189;-55
2022/03/10 13:39:46;;;;;;;6.85;4.57;;;;;;;;;;4993414;28;20662;-55
2022/03/10 13:42:12;;;;;;;8.40;4.60;;;;;;;;;;4981377;28;20231;-55
2022/03/10 13:44:38;;;;;;;6.28;4.20;;;;;;;;;;4988491;28;20260;-54
2022/03/10 13:47:07;;;;;;;5.93;3.90;;;;;;;;;;4985622;28;20699;-57
2022/03/10 13:49:43;;;;;;;6.05;3.53;;;;;;;;;;4985367;28;20267;-54
2022/03/10 13:52:13;;;;;;;6.32;4.03;;;;;;;;;;4991658;28;20966;-53
2022/03/10 13:54:39;;;;;;;5.88;3.80;;;;;;;;;;4987761;28;20177;-53
2022/03/10 13:57:05;;;;;;;5.40;3.65;;;;;;;;;;4985310;28;20204;-56
2022/03/10 13:59:31;;;;;;;4.00;3.60;;;;;;;;;;4985442;28;20666;-56
2022/03/10 14:01:57;;;;;;;4.32;3.45;;;;;;;;;;4988122;28;20193;-56
2022/03/10 14:04:23;;;;;;;3.92;3.22;;;;;;;;;;4989863;28;20580;-56
2022/03/10 14:06:50;;;;;;;5.07;3.55;;;;;;;;;;4990826;28;20709;-55
2022/03/10 14:09:20;;;;;;;6.22;3.00;;;;;;;;;;4987799;28;20197;-56
2022/03/10 14:11:46;;;;;;;4.18;3.25;;;;;;;;;;4970096;28;20236;-55
2022/03/10 14:14:12;;;;;;;3.85;3.17;;;;;;;;;;4984023;28;20683;-53
2022/03/10 14:16:49;;;;;;;3.53;3.10;;;;;;;;;;4985010;28;20190;-55
2022/03/10 14:19:21;;;;;;;5.00;3.15;;;;;;;;;;4987318;28;20271;-55
2022/03/10 14:21:51;;;;;;;4.53;3.25;;;;;;;;;;4982769;28;20196;-55
2022/03/10 14:24:24;;;;;;;7.47;3.20;;;;;;;;;;4981873;28;20204;-55
2022/03/10 14:26:50;;;;;;;5.57;3.15;;;;;;;;;;4985337;28;20772;-55